sensor_id;sensor_type;location;lat;lon;timestamp;temperature;humidity
8463;DHT22;4268;52.506;13.462;2023-12-29T00:01:54;8.30;99.90
8463;DHT22;4268;52.506;13.462;2023-12-29T00:04:19;8.30;99.90
8463;DHT22;4268;52.506;13.462;2023-12-29T00:06:45;8.30;99.90
8463;DHT22;4268;52.506;13.462;2023-12-29T00:09:11;8.30;99.90
8463;DHT22;4268;52.506;13.462;2023-12-29T00:11:38;8.30;99.90
8463;DHT22;4268;52.506;13.462;2023-12-29T00:14:03;8.30;99.90
8463;DHT22;4268;52.506;13.462;2023-12-29T00:16:29;8.30;99.90
8463;DHT22;4268;52.506;13.462;2023-12-29T00:18:54;8.30;99.90
8463;DHT22;4268;52.506;13.462;2023-12-29T00:21:20;8.40;99.90
8463;DHT22;4268;52.506;13.462;2023-12-29T00:23:47;8.30;99.90
8463;DHT22;4268;52.506;13.462;2023-12-29T00:26:12;8.40;99.90
8463;DHT22;4268;52.506;13.462;2023-12-29T00:28:38;8.40;99.90
8463;DHT22;4268;52.506;13.462;2023-12-29T00:31:06;8.40;99.90
8463;DHT22;4268;52.506;13.462;2023-12-29T00:33:32;8.40;99.90
8463;DHT22;4268;52.506;13.462;2023-12-29T00:35:58;8.30;99.90
8463;DHT22;4268;52.506;13.462;2023-12-29T00:38:24;8.30;99.90
8463;DHT22;4268;52.506;13.462;2023-12-29T00:40:50;8.40;99.90
8463;DHT22;4268;52.506;13.462;2023-12-29T00:43:15;8.30;99.90
8463;DHT22;4268;52.506;13.462;2023-12-29T00:45:41;8.40;99.90
8463;DHT22;4268;52.506;13.462;2023-12-29T00:48:06;8.40;99.90
8463;DHT22;4268;52.506;13.462;2023-12-29T00:50:32;8.40;99.90
8463;DHT22;4268;52.506;13.462;2023-12-29T00:52:57;8.40;99.90
8463;DHT22;4268;52.506;13.462;2023-12-29T00:55:23;8.40;99.90
8463;DHT22;4268;52.506;13.462;2023-12-29T00:57:48;8.40;99.90
8463;DHT22;4268;52.506;13.462;2023-12-29T01:00:14;8.40;99.90
8463;DHT22;4268;52.506;13.462;2023-12-29T01:02:39;8.40;99.90
8463;DHT22;4268;52.506;13.462;2023-12-29T01:05:05;8.30;99.90
8463;DHT22;4268;52.506;13.462;2023-12-29T01:07:31;8.30;99.90
8463;DHT22;4268;52.506;13.462;2023-12-29T01:09:57;8.30;99.90
8463;DHT22;4268;52.506;13.462;2023-12-29T01:12:22;8.30;99.90
8463;DHT22;4268;52.506;13.462;2023-12-29T01:14:48;8.30;99.90
8463;DHT22;4268;52.506;13.462;2023-12-29T01:17:13;8.30;99.90
8463;DHT22;4268;52.506;13.462;2023-12-29T01:19:39;8.30;99.90
8463;DHT22;4268;52.506;13.462;2023-12-29T01:22:04;8.30;99.90
8463;DHT22;4268;52.506;13.462;2023-12-29T01:24:30;8.40;99.90
8463;DHT22;4268;52.506;13.462;2023-12-29T01:26:56;8.30;99.90
8463;DHT22;4268;52.506;13.462;2023-12-29T01:29:21;8.30;99.90
8463;DHT22;4268;52.506;13.462;2023-12-29T01:31:47;8.30;99.90
8463;DHT22;4268;52.506;13.462;2023-12-29T01:34:13;8.30;99.90
8463;DHT22;4268;52.506;13.462;2023-12-29T01:36:38;8.30;99.90
8463;DHT22;4268;52.506;13.462;2023-12-29T01:39:04;8.30;99.90
8463;DHT22;4268;52.506;13.462;2023-12-29T01:41:30;8.40;99.90
8463;DHT22;4268;52.506;13.462;2023-12-29T01:44:20;8.30;99.90
8463;DHT22;4268;52.506;13.462;2023-12-29T01:46:46;8.30;99.90
8463;DHT22;4268;52.506;13.462;2023-12-29T01:49:15;8.30;99.90
8463;DHT22;4268;52.506;13.462;2023-12-29T01:51:42;8.30;99.90
8463;DHT22;4268;52.506;13.462;2023-12-29T01:54:10;8.30;99.90
8463;DHT22;4268;52.506;13.462;2023-12-29T01:56:36;8.30;99.90
8463;DHT22;4268;52.506;13.462;2023-12-29T01:59:02;8.30;99.90
8463;DHT22;4268;52.506;13.462;2023-12-29T02:01:29;8.30;99.90
8463;DHT22;4268;52.506;13.462;2023-12-29T02:03:54;8.30;99.90
8463;DHT22;4268;52.506;13.462;2023-12-29T02:06:21;8.30;99.90
8463;DHT22;4268;52.506;13.462;2023-12-29T02:08:47;8.30;99.90
8463;DHT22;4268;52.506;13.462;2023-12-29T02:11:13;8.30;99.90
8463;DHT22;4268;52.506;13.462;2023-12-29T02:13:39;8.30;99.90
8463;DHT22;4268;52.506;13.462;2023-12-29T02:16:12;8.30;99.90
8463;DHT22;4268;52.506;13.462;2023-12-29T02:18:42;8.30;99.90
8463;DHT22;4268;52.506;13.462;2023-12-29T02:21:10;8.30;99.90
8463;DHT22;4268;52.506;13.462;2023-12-29T02:23:35;8.30;99.90
8463;DHT22;4268;52.506;13.462;2023-12-29T02:26:05;8.30;99.90
8463;DHT22;4268;52.506;13.462;2023-12-29T02:28:33;8.30;99.90
8463;DHT22;4268;52.506;13.462;2023-12-29T02:31:09;8.30;99.90
8463;DHT22;4268;52.506;13.462;2023-12-29T02:33:38;8.30;99.90
8463;DHT22;4268;52.506;13.462;2023-12-29T02:36:05;8.30;99.90
8463;DHT22;4268;52.506;13.462;2023-12-29T02:38:32;8.30;99.90
8463;DHT22;4268;52.506;13.462;2023-12-29T02:40:58;8.30;99.90
8463;DHT22;4268;52.506;13.462;2023-12-29T02:43:24;8.30;99.90
8463;DHT22;4268;52.506;13.462;2023-12-29T02:45:50;8.30;99.90
8463;DHT22;4268;52.506;13.462;2023-12-29T02:48:15;8.30;99.90
8463;DHT22;4268;52.506;13.462;2023-12-29T02:50:41;8.20;99.90
8463;DHT22;4268;52.506;13.462;2023-12-29T02:53:06;8.30;99.90
8463;DHT22;4268;52.506;13.462;2023-12-29T02:55:32;8.30;99.90
8463;DHT22;4268;52.506;13.462;2023-12-29T02:57:58;8.40;99.90
8463;DHT22;4268;52.506;13.462;2023-12-29T03:00:23;8.40;99.90
8463;DHT22;4268;52.506;13.462;2023-12-29T03:02:49;8.40;99.90
8463;DHT22;4268;52.506;13.462;2023-12-29T03:05:15;8.40;99.90
8463;DHT22;4268;52.506;13.462;2023-12-29T03:07:40;8.40;99.90
8463;DHT22;4268;52.506;13.462;2023-12-29T03:10:07;8.50;99.90
8463;DHT22;4268;52.506;13.462;2023-12-29T03:12:33;8.50;99.90
8463;DHT22;4268;52.506;13.462;2023-12-29T03:14:58;8.50;99.90
8463;DHT22;4268;52.506;13.462;2023-12-29T03:17:24;8.50;99.90
8463;DHT22;4268;52.506;13.462;2023-12-29T03:19:50;8.60;99.90
8463;DHT22;4268;52.506;13.462;2023-12-29T03:22:15;8.60;99.90
8463;DHT22;4268;52.506;13.462;2023-12-29T03:24:41;8.50;99.90
8463;DHT22;4268;52.506;13.462;2023-12-29T03:27:08;8.50;99.90
8463;DHT22;4268;52.506;13.462;2023-12-29T03:29:34;8.50;99.90
8463;DHT22;4268;52.506;13.462;2023-12-29T03:31:59;8.50;99.90
8463;DHT22;4268;52.506;13.462;2023-12-29T03:34:25;8.40;99.90
8463;DHT22;4268;52.506;13.462;2023-12-29T03:36:50;8.50;99.90
8463;DHT22;4268;52.506;13.462;2023-12-29T03:39:16;8.50;99.90
8463;DHT22;4268;52.506;13.462;2023-12-29T03:41:41;8.60;99.90
8463;DHT22;4268;52.506;13.462;2023-12-29T03:44:07;8.50;99.90
8463;DHT22;4268;52.506;13.462;2023-12-29T03:46:33;8.50;99.90
8463;DHT22;4268;52.506;13.462;2023-12-29T03:48:58;8.60;99.90
8463;DHT22;4268;52.506;13.462;2023-12-29T03:51:24;8.60;99.90
8463;DHT22;4268;52.506;13.462;2023-12-29T03:53:49;8.60;99.90
8463;DHT22;4268;52.506;13.462;2023-12-29T03:56:16;8.70;99.90
8463;DHT22;4268;52.506;13.462;2023-12-29T03:58:43;8.60;99.90
8463;DHT22;4268;52.506;13.462;2023-12-29T04:01:12;8.70;99.90
8463;DHT22;4268;52.506;13.462;2023-12-29T04:03:38;8.70;99.90
8463;DHT22;4268;52.506;13.462;2023-12-29T04:06:05;8.70;99.90
8463;DHT22;4268;52.506;13.462;2023-12-29T04:08:31;8.80;99.90
8463;DHT22;4268;52.506;13.462;2023-12-29T04:10:57;8.80;99.90
8463;DHT22;4268;52.506;13.462;2023-12-29T04:13:22;8.80;99.90
8463;DHT22;4268;52.506;13.462;2023-12-29T04:15:48;8.80;99.90
8463;DHT22;4268;52.506;13.462;2023-12-29T04:18:13;8.90;99.90
8463;DHT22;4268;52.506;13.462;2023-12-29T04:20:39;8.80;99.90
8463;DHT22;4268;52.506;13.462;2023-12-29T04:23:06;8.80;99.90
8463;DHT22;4268;52.506;13.462;2023-12-29T04:25:32;8.80;99.90
8463;DHT22;4268;52.506;13.462;2023-12-29T04:27:57;8.70;99.90
8463;DHT22;4268;52.506;13.462;2023-12-29T04:30:23;8.70;99.90
8463;DHT22;4268;52.506;13.462;2023-12-29T04:32:48;8.80;99.90
8463;DHT22;4268;52.506;13.462;2023-12-29T04:35:14;8.70;99.90
8463;DHT22;4268;52.506;13.462;2023-12-29T04:37:42;8.80;99.90
8463;DHT22;4268;52.506;13.462;2023-12-29T04:40:08;8.80;99.90
8463;DHT22;4268;52.506;13.462;2023-12-29T04:42:33;8.80;99.90
8463;DHT22;4268;52.506;13.462;2023-12-29T04:44:59;8.80;99.90
8463;DHT22;4268;52.506;13.462;2023-12-29T04:47:24;8.80;99.90
8463;DHT22;4268;52.506;13.462;2023-12-29T04:49:50;8.80;99.90
8463;DHT22;4268;52.506;13.462;2023-12-29T04:52:15;8.70;99.90
8463;DHT22;4268;52.506;13.462;2023-12-29T04:54:41;8.70;99.90
8463;DHT22;4268;52.506;13.462;2023-12-29T04:57:06;8.70;99.90
8463;DHT22;4268;52.506;13.462;2023-12-29T04:59:32;8.70;99.90
8463;DHT22;4268;52.506;13.462;2023-12-29T05:01:57;8.70;99.90
8463;DHT22;4268;52.506;13.462;2023-12-29T05:04:23;8.70;99.90
8463;DHT22;4268;52.506;13.462;2023-12-29T05:06:48;8.70;99.90
8463;DHT22;4268;52.506;13.462;2023-12-29T05:09:14;8.70;99.90
8463;DHT22;4268;52.506;13.462;2023-12-29T05:11:39;8.70;99.90
8463;DHT22;4268;52.506;13.462;2023-12-29T05:14:05;8.80;99.90
8463;DHT22;4268;52.506;13.462;2023-12-29T05:16:30;8.80;99.90
8463;DHT22;4268;52.506;13.462;2023-12-29T05:18:56;8.80;99.90
8463;DHT22;4268;52.506;13.462;2023-12-29T05:21:22;8.80;99.90
8463;DHT22;4268;52.506;13.462;2023-12-29T05:23:49;8.80;99.90
8463;DHT22;4268;52.506;13.462;2023-12-29T05:26:15;8.70;99.90
8463;DHT22;4268;52.506;13.462;2023-12-29T05:28:40;8.80;99.90
8463;DHT22;4268;52.506;13.462;2023-12-29T05:31:06;8.80;99.90
8463;DHT22;4268;52.506;13.462;2023-12-29T05:33:32;8.80;99.90
8463;DHT22;4268;52.506;13.462;2023-12-29T05:35:59;8.90;99.90
8463;DHT22;4268;52.506;13.462;2023-12-29T05:38:25;8.90;99.90
8463;DHT22;4268;52.506;13.462;2023-12-29T05:40:50;8.90;99.90
8463;DHT22;4268;52.506;13.462;2023-12-29T05:43:17;9.00;99.90
8463;DHT22;4268;52.506;13.462;2023-12-29T05:45:42;9.00;99.90
8463;DHT22;4268;52.506;13.462;2023-12-29T05:48:08;9.00;99.90
8463;DHT22;4268;52.506;13.462;2023-12-29T05:50:33;9.10;99.90
8463;DHT22;4268;52.506;13.462;2023-12-29T05:52:59;9.10;99.90
8463;DHT22;4268;52.506;13.462;2023-12-29T05:55:25;9.10;99.90
8463;DHT22;4268;52.506;13.462;2023-12-29T05:57:50;9.10;99.90
8463;DHT22;4268;52.506;13.462;2023-12-29T06:00:16;9.10;99.90
8463;DHT22;4268;52.506;13.462;2023-12-29T06:02:42;9.20;99.90
8463;DHT22;4268;52.506;13.462;2023-12-29T06:05:10;9.20;99.90
8463;DHT22;4268;52.506;13.462;2023-12-29T06:07:36;9.20;99.90
8463;DHT22;4268;52.506;13.462;2023-12-29T06:10:01;9.20;99.90
8463;DHT22;4268;52.506;13.462;2023-12-29T06:12:27;9.20;99.90
8463;DHT22;4268;52.506;13.462;2023-12-29T06:14:52;9.20;99.90
8463;DHT22;4268;52.506;13.462;2023-12-29T06:17:18;9.20;99.90
8463;DHT22;4268;52.506;13.462;2023-12-29T06:19:43;9.30;99.90
8463;DHT22;4268;52.506;13.462;2023-12-29T06:22:09;9.30;99.90
8463;DHT22;4268;52.506;13.462;2023-12-29T06:24:37;9.30;99.90
8463;DHT22;4268;52.506;13.462;2023-12-29T06:27:03;9.30;99.90
8463;DHT22;4268;52.506;13.462;2023-12-29T06:29:29;9.30;99.90
8463;DHT22;4268;52.506;13.462;2023-12-29T06:31:54;9.30;99.90
8463;DHT22;4268;52.506;13.462;2023-12-29T06:34:20;9.30;99.90
8463;DHT22;4268;52.506;13.462;2023-12-29T06:36:45;9.30;99.90
8463;DHT22;4268;52.506;13.462;2023-12-29T06:39:11;9.30;99.90
8463;DHT22;4268;52.506;13.462;2023-12-29T06:41:37;9.30;99.90
8463;DHT22;4268;52.506;13.462;2023-12-29T06:44:02;9.30;99.90
8463;DHT22;4268;52.506;13.462;2023-12-29T06:46:28;9.30;99.90
8463;DHT22;4268;52.506;13.462;2023-12-29T06:48:54;9.40;99.90
8463;DHT22;4268;52.506;13.462;2023-12-29T06:51:19;9.40;99.90
8463;DHT22;4268;52.506;13.462;2023-12-29T06:53:46;9.40;99.90
8463;DHT22;4268;52.506;13.462;2023-12-29T06:56:14;9.40;99.90
8463;DHT22;4268;52.506;13.462;2023-12-29T06:58:40;9.40;99.90
8463;DHT22;4268;52.506;13.462;2023-12-29T07:01:05;9.40;99.90
8463;DHT22;4268;52.506;13.462;2023-12-29T07:03:31;9.40;99.90
8463;DHT22;4268;52.506;13.462;2023-12-29T07:05:56;9.40;99.90
8463;DHT22;4268;52.506;13.462;2023-12-29T07:08:22;9.40;99.90
8463;DHT22;4268;52.506;13.462;2023-12-29T07:10:47;9.40;99.90
8463;DHT22;4268;52.506;13.462;2023-12-29T07:13:15;9.50;99.90
8463;DHT22;4268;52.506;13.462;2023-12-29T07:15:41;9.50;99.90
8463;DHT22;4268;52.506;13.462;2023-12-29T07:18:06;9.50;99.90
8463;DHT22;4268;52.506;13.462;2023-12-29T07:20:32;9.50;99.90
8463;DHT22;4268;52.506;13.462;2023-12-29T07:22:58;9.60;99.90
8463;DHT22;4268;52.506;13.462;2023-12-29T07:25:23;9.60;99.90
8463;DHT22;4268;52.506;13.462;2023-12-29T07:27:49;9.60;99.90
8463;DHT22;4268;52.506;13.462;2023-12-29T07:30:15;9.60;99.90
8463;DHT22;4268;52.506;13.462;2023-12-29T07:32:40;9.60;99.90
8463;DHT22;4268;52.506;13.462;2023-12-29T07:35:06;9.60;99.90
8463;DHT22;4268;52.506;13.462;2023-12-29T07:37:32;9.60;99.90
8463;DHT22;4268;52.506;13.462;2023-12-29T07:39:57;9.60;99.90
8463;DHT22;4268;52.506;13.462;2023-12-29T07:42:23;9.60;99.90
8463;DHT22;4268;52.506;13.462;2023-12-29T07:44:48;9.60;99.90
8463;DHT22;4268;52.506;13.462;2023-12-29T07:47:14;9.60;99.90
8463;DHT22;4268;52.506;13.462;2023-12-29T07:49:41;9.60;99.90
8463;DHT22;4268;52.506;13.462;2023-12-29T07:52:07;9.50;99.90
8463;DHT22;4268;52.506;13.462;2023-12-29T07:54:33;9.60;99.90
8463;DHT22;4268;52.506;13.462;2023-12-29T07:56:59;9.50;99.90
8463;DHT22;4268;52.506;13.462;2023-12-29T07:59:24;10.00;99.90
8463;DHT22;4268;52.506;13.462;2023-12-29T08:01:50;9.60;99.90
8463;DHT22;4268;52.506;13.462;2023-12-29T08:04:16;9.60;99.90
8463;DHT22;4268;52.506;13.462;2023-12-29T08:06:41;9.70;99.90
8463;DHT22;4268;52.506;13.462;2023-12-29T08:09:07;9.70;99.90
8463;DHT22;4268;52.506;13.462;2023-12-29T08:11:33;9.80;99.90
8463;DHT22;4268;52.506;13.462;2023-12-29T08:13:58;9.90;99.90
8463;DHT22;4268;52.506;13.462;2023-12-29T08:16:24;9.90;99.90
8463;DHT22;4268;52.506;13.462;2023-12-29T08:18:50;9.90;99.90
8463;DHT22;4268;52.506;13.462;2023-12-29T08:21:22;10.00;99.90
8463;DHT22;4268;52.506;13.462;2023-12-29T08:23:48;10.00;99.90
8463;DHT22;4268;52.506;13.462;2023-12-29T08:26:14;10.10;99.90
8463;DHT22;4268;52.506;13.462;2023-12-29T08:28:40;10.00;99.90
8463;DHT22;4268;52.506;13.462;2023-12-29T08:31:07;10.00;99.90
8463;DHT22;4268;52.506;13.462;2023-12-29T08:33:32;10.10;99.90
8463;DHT22;4268;52.506;13.462;2023-12-29T08:35:58;9.30;99.90
8463;DHT22;4268;52.506;13.462;2023-12-29T08:38:26;10.30;99.90
8463;DHT22;4268;52.506;13.462;2023-12-29T08:40:52;10.30;99.90
8463;DHT22;4268;52.506;13.462;2023-12-29T08:43:18;10.30;99.90
8463;DHT22;4268;52.506;13.462;2023-12-29T08:45:47;10.20;99.90
8463;DHT22;4268;52.506;13.462;2023-12-29T08:48:13;10.30;99.90
8463;DHT22;4268;52.506;13.462;2023-12-29T08:53:06;10.30;99.90
8463;DHT22;4268;52.506;13.462;2023-12-29T08:55:31;10.30;99.90
8463;DHT22;4268;52.506;13.462;2023-12-29T08:57:57;10.40;99.90
8463;DHT22;4268;52.506;13.462;2023-12-29T09:00:23;10.40;99.90
8463;DHT22;4268;52.506;13.462;2023-12-29T09:02:48;10.40;99.90
8463;DHT22;4268;52.506;13.462;2023-12-29T09:05:14;10.30;99.90
8463;DHT22;4268;52.506;13.462;2023-12-29T09:07:40;10.20;99.90
8463;DHT22;4268;52.506;13.462;2023-12-29T09:10:06;10.30;99.90
8463;DHT22;4268;52.506;13.462;2023-12-29T09:12:34;10.30;99.90
8463;DHT22;4268;52.506;13.462;2023-12-29T09:14:59;10.30;99.90
8463;DHT22;4268;52.506;13.462;2023-12-29T09:17:25;10.40;99.90
8463;DHT22;4268;52.506;13.462;2023-12-29T09:19:50;10.60;99.90
8463;DHT22;4268;52.506;13.462;2023-12-29T09:22:16;10.70;99.90
8463;DHT22;4268;52.506;13.462;2023-12-29T09:24:42;10.80;99.90
8463;DHT22;4268;52.506;13.462;2023-12-29T09:27:07;10.80;99.90
8463;DHT22;4268;52.506;13.462;2023-12-29T09:29:33;10.70;99.90
8463;DHT22;4268;52.506;13.462;2023-12-29T09:31:59;10.70;99.90
8463;DHT22;4268;52.506;13.462;2023-12-29T09:34:24;10.70;99.90
8463;DHT22;4268;52.506;13.462;2023-12-29T09:36:50;10.70;99.90
8463;DHT22;4268;52.506;13.462;2023-12-29T09:39:15;10.70;99.90
8463;DHT22;4268;52.506;13.462;2023-12-29T09:41:45;10.80;99.90
8463;DHT22;4268;52.506;13.462;2023-12-29T09:44:14;10.90;99.90
8463;DHT22;4268;52.506;13.462;2023-12-29T09:46:42;11.00;99.90
8463;DHT22;4268;52.506;13.462;2023-12-29T09:49:09;11.00;99.90
8463;DHT22;4268;52.506;13.462;2023-12-29T09:51:36;11.00;99.90
8463;DHT22;4268;52.506;13.462;2023-12-29T09:54:02;11.00;99.90
8463;DHT22;4268;52.506;13.462;2023-12-29T09:56:28;11.00;99.90
8463;DHT22;4268;52.506;13.462;2023-12-29T09:58:54;10.90;99.90
8463;DHT22;4268;52.506;13.462;2023-12-29T10:01:22;10.90;99.90
8463;DHT22;4268;52.506;13.462;2023-12-29T10:03:48;10.90;99.90
8463;DHT22;4268;52.506;13.462;2023-12-29T10:06:19;10.90;99.90
8463;DHT22;4268;52.506;13.462;2023-12-29T10:08:45;10.90;99.90
8463;DHT22;4268;52.506;13.462;2023-12-29T10:11:14;10.90;99.90
8463;DHT22;4268;52.506;13.462;2023-12-29T10:13:42;11.00;99.90
8463;DHT22;4268;52.506;13.462;2023-12-29T10:24:18;11.20;99.90
8463;DHT22;4268;52.506;13.462;2023-12-29T10:26:44;11.30;99.90
8463;DHT22;4268;52.506;13.462;2023-12-29T10:29:11;11.30;99.90
8463;DHT22;4268;52.506;13.462;2023-12-29T10:31:37;11.30;99.90
8463;DHT22;4268;52.506;13.462;2023-12-29T10:34:20;11.30;99.90
8463;DHT22;4268;52.506;13.462;2023-12-29T10:36:48;11.30;99.90
8463;DHT22;4268;52.506;13.462;2023-12-29T10:39:14;11.40;99.90
8463;DHT22;4268;52.506;13.462;2023-12-29T10:41:40;11.30;99.90
8463;DHT22;4268;52.506;13.462;2023-12-29T10:44:07;11.40;99.90
8463;DHT22;4268;52.506;13.462;2023-12-29T10:46:33;11.40;99.90
8463;DHT22;4268;52.506;13.462;2023-12-29T10:49:12;11.40;99.90
8463;DHT22;4268;52.506;13.462;2023-12-29T10:51:39;11.40;99.90
8463;DHT22;4268;52.506;13.462;2023-12-29T10:54:05;11.40;99.90
8463;DHT22;4268;52.506;13.462;2023-12-29T10:56:32;11.40;99.90
8463;DHT22;4268;52.506;13.462;2023-12-29T11:01:28;11.30;99.90
8463;DHT22;4268;52.506;13.462;2023-12-29T11:03:58;11.40;99.90
8463;DHT22;4268;52.506;13.462;2023-12-29T11:06:26;11.40;99.90
8463;DHT22;4268;52.506;13.462;2023-12-29T11:08:52;11.50;99.90
8463;DHT22;4268;52.506;13.462;2023-12-29T11:11:18;11.40;99.90
8463;DHT22;4268;52.506;13.462;2023-12-29T11:13:46;11.40;99.90
8463;DHT22;4268;52.506;13.462;2023-12-29T11:16:12;11.50;99.90
8463;DHT22;4268;52.506;13.462;2023-12-29T11:18:38;11.50;99.90
8463;DHT22;4268;52.506;13.462;2023-12-29T11:21:04;11.50;99.90
8463;DHT22;4268;52.506;13.462;2023-12-29T11:23:30;11.50;99.90
8463;DHT22;4268;52.506;13.462;2023-12-29T11:25:57;11.50;99.90
8463;DHT22;4268;52.506;13.462;2023-12-29T11:28:25;11.50;99.90
8463;DHT22;4268;52.506;13.462;2023-12-29T11:30:51;11.50;99.90
8463;DHT22;4268;52.506;13.462;2023-12-29T11:33:30;11.50;99.90
8463;DHT22;4268;52.506;13.462;2023-12-29T11:36:04;11.50;99.90
8463;DHT22;4268;52.506;13.462;2023-12-29T11:44:06;11.50;99.90
8463;DHT22;4268;52.506;13.462;2023-12-29T11:46:38;11.50;99.90
8463;DHT22;4268;52.506;13.462;2023-12-29T11:49:05;11.50;99.90
8463;DHT22;4268;52.506;13.462;2023-12-29T11:51:41;11.50;99.90
8463;DHT22;4268;52.506;13.462;2023-12-29T11:54:08;11.50;99.90
8463;DHT22;4268;52.506;13.462;2023-12-29T11:56:39;11.50;99.90
8463;DHT22;4268;52.506;13.462;2023-12-29T11:59:13;11.50;99.90
8463;DHT22;4268;52.506;13.462;2023-12-29T12:01:39;11.50;99.90
8463;DHT22;4268;52.506;13.462;2023-12-29T12:04:04;11.50;99.90
8463;DHT22;4268;52.506;13.462;2023-12-29T12:06:50;11.50;99.90
8463;DHT22;4268;52.506;13.462;2023-12-29T12:09:22;11.50;99.90
8463;DHT22;4268;52.506;13.462;2023-12-29T12:11:50;11.50;99.90
8463;DHT22;4268;52.506;13.462;2023-12-29T12:17:09;11.40;99.90
8463;DHT22;4268;52.506;13.462;2023-12-29T12:19:36;11.40;99.90
8463;DHT22;4268;52.506;13.462;2023-12-29T12:22:02;11.40;99.90
8463;DHT22;4268;52.506;13.462;2023-12-29T12:24:28;11.40;99.90
8463;DHT22;4268;52.506;13.462;2023-12-29T12:26:57;11.30;99.90
8463;DHT22;4268;52.506;13.462;2023-12-29T12:29:22;11.30;99.90
8463;DHT22;4268;52.506;13.462;2023-12-29T12:31:55;11.30;99.90
8463;DHT22;4268;52.506;13.462;2023-12-29T12:34:21;11.30;99.90
8463;DHT22;4268;52.506;13.462;2023-12-29T12:36:51;11.20;99.90
8463;DHT22;4268;52.506;13.462;2023-12-29T12:39:16;11.20;99.90
8463;DHT22;4268;52.506;13.462;2023-12-29T12:41:42;11.20;99.90
8463;DHT22;4268;52.506;13.462;2023-12-29T12:44:13;11.20;99.90
8463;DHT22;4268;52.506;13.462;2023-12-29T12:49:14;11.10;99.90
8463;DHT22;4268;52.506;13.462;2023-12-29T12:51:40;11.10;99.90
8463;DHT22;4268;52.506;13.462;2023-12-29T12:54:06;11.00;99.90
8463;DHT22;4268;52.506;13.462;2023-12-29T12:56:32;11.00;99.90
8463;DHT22;4268;52.506;13.462;2023-12-29T12:58:59;11.00;99.90
8463;DHT22;4268;52.506;13.462;2023-12-29T13:01:27;10.90;99.90
8463;DHT22;4268;52.506;13.462;2023-12-29T13:03:53;10.90;99.90
8463;DHT22;4268;52.506;13.462;2023-12-29T13:06:21;10.90;99.90
8463;DHT22;4268;52.506;13.462;2023-12-29T13:08:49;10.90;99.90
8463;DHT22;4268;52.506;13.462;2023-12-29T13:11:19;10.80;99.90
8463;DHT22;4268;52.506;13.462;2023-12-29T13:13:47;10.80;99.90
8463;DHT22;4268;52.506;13.462;2023-12-29T13:16:13;10.80;99.90
8463;DHT22;4268;52.506;13.462;2023-12-29T13:18:39;10.80;99.90
8463;DHT22;4268;52.506;13.462;2023-12-29T13:21:06;10.80;99.90
8463;DHT22;4268;52.506;13.462;2023-12-29T13:23:32;10.80;99.90
8463;DHT22;4268;52.506;13.462;2023-12-29T13:26:01;10.80;99.90
8463;DHT22;4268;52.506;13.462;2023-12-29T13:28:27;10.80;99.90
8463;DHT22;4268;52.506;13.462;2023-12-29T13:30:53;10.80;99.90
8463;DHT22;4268;52.506;13.462;2023-12-29T13:33:44;10.80;99.90
8463;DHT22;4268;52.506;13.462;2023-12-29T13:38:53;10.80;99.90
8463;DHT22;4268;52.506;13.462;2023-12-29T13:41:20;10.80;99.90
8463;DHT22;4268;52.506;13.462;2023-12-29T13:43:47;10.80;99.90
8463;DHT22;4268;52.506;13.462;2023-12-29T13:46:16;10.80;99.90
8463;DHT22;4268;52.506;13.462;2023-12-29T13:48:43;10.80;99.90
8463;DHT22;4268;52.506;13.462;2023-12-29T13:51:09;10.80;99.90
8463;DHT22;4268;52.506;13.462;2023-12-29T13:53:35;10.80;99.90
8463;DHT22;4268;52.506;13.462;2023-12-29T13:56:10;10.80;99.90
8463;DHT22;4268;52.506;13.462;2023-12-29T13:58:36;10.80;99.90
8463;DHT22;4268;52.506;13.462;2023-12-29T14:01:06;10.80;99.90
8463;DHT22;4268;52.506;13.462;2023-12-29T14:03:55;10.80;99.90
8463;DHT22;4268;52.506;13.462;2023-12-29T14:06:36;10.80;99.90
8463;DHT22;4268;52.506;13.462;2023-12-29T14:09:03;10.80;99.90
8463;DHT22;4268;52.506;13.462;2023-12-29T14:11:29;10.80;99.90
8463;DHT22;4268;52.506;13.462;2023-12-29T14:13:56;10.80;99.90
8463;DHT22;4268;52.506;13.462;2023-12-29T14:16:21;10.90;99.90
8463;DHT22;4268;52.506;13.462;2023-12-29T14:18:52;10.80;99.90
8463;DHT22;4268;52.506;13.462;2023-12-29T14:21:28;10.90;99.90
8463;DHT22;4268;52.506;13.462;2023-12-29T14:24:06;10.90;99.90
8463;DHT22;4268;52.506;13.462;2023-12-29T14:26:32;10.80;99.90
8463;DHT22;4268;52.506;13.462;2023-12-29T14:29:02;10.80;99.90
8463;DHT22;4268;52.506;13.462;2023-12-29T14:31:28;10.90;99.90
8463;DHT22;4268;52.506;13.462;2023-12-29T14:33:53;10.90;99.90
8463;DHT22;4268;52.506;13.462;2023-12-29T14:36:19;10.80;99.90
8463;DHT22;4268;52.506;13.462;2023-12-29T14:38:44;10.80;99.90
8463;DHT22;4268;52.506;13.462;2023-12-29T14:41:10;10.80;99.90
8463;DHT22;4268;52.506;13.462;2023-12-29T14:43:36;10.80;99.90
8463;DHT22;4268;52.506;13.462;2023-12-29T14:46:02;10.80;99.90
8463;DHT22;4268;52.506;13.462;2023-12-29T14:48:27;10.80;99.90
8463;DHT22;4268;52.506;13.462;2023-12-29T14:50:53;10.80;99.90
8463;DHT22;4268;52.506;13.462;2023-12-29T14:53:18;10.90;99.90
8463;DHT22;4268;52.506;13.462;2023-12-29T14:55:44;10.90;99.90
8463;DHT22;4268;52.506;13.462;2023-12-29T14:58:10;10.90;99.90
8463;DHT22;4268;52.506;13.462;2023-12-29T15:00:36;10.90;99.90
8463;DHT22;4268;52.506;13.462;2023-12-29T15:03:01;11.00;99.90
8463;DHT22;4268;52.506;13.462;2023-12-29T15:05:27;10.90;99.90
8463;DHT22;4268;52.506;13.462;2023-12-29T15:07:53;10.90;99.90
8463;DHT22;4268;52.506;13.462;2023-12-29T15:10:19;10.90;99.90
8463;DHT22;4268;52.506;13.462;2023-12-29T15:12:44;10.80;99.90
8463;DHT22;4268;52.506;13.462;2023-12-29T15:15:10;10.80;99.90
8463;DHT22;4268;52.506;13.462;2023-12-29T15:17:38;10.80;99.90
8463;DHT22;4268;52.506;13.462;2023-12-29T15:20:04;10.70;99.90
8463;DHT22;4268;52.506;13.462;2023-12-29T15:22:30;10.60;99.90
8463;DHT22;4268;52.506;13.462;2023-12-29T15:24:55;10.60;99.90
8463;DHT22;4268;52.506;13.462;2023-12-29T15:27:21;10.50;99.90
8463;DHT22;4268;52.506;13.462;2023-12-29T15:29:46;10.50;99.90
8463;DHT22;4268;52.506;13.462;2023-12-29T15:32:12;10.60;99.90
8463;DHT22;4268;52.506;13.462;2023-12-29T15:34:38;10.60;99.90
8463;DHT22;4268;52.506;13.462;2023-12-29T15:37:03;10.60;99.90
8463;DHT22;4268;52.506;13.462;2023-12-29T15:39:29;10.70;99.90
8463;DHT22;4268;52.506;13.462;2023-12-29T15:41:54;10.70;99.90
8463;DHT22;4268;52.506;13.462;2023-12-29T15:44:20;10.60;99.90
8463;DHT22;4268;52.506;13.462;2023-12-29T15:46:46;10.60;99.90
8463;DHT22;4268;52.506;13.462;2023-12-29T15:49:11;10.60;99.90
8463;DHT22;4268;52.506;13.462;2023-12-29T15:51:37;10.60;99.90
8463;DHT22;4268;52.506;13.462;2023-12-29T15:54:02;10.50;99.90
8463;DHT22;4268;52.506;13.462;2023-12-29T15:56:28;10.50;99.90
8463;DHT22;4268;52.506;13.462;2023-12-29T15:58:53;10.40;99.90
8463;DHT22;4268;52.506;13.462;2023-12-29T16:01:20;10.50;99.90
8463;DHT22;4268;52.506;13.462;2023-12-29T16:03:46;10.40;99.90
8463;DHT22;4268;52.506;13.462;2023-12-29T16:06:19;10.50;99.90
8463;DHT22;4268;52.506;13.462;2023-12-29T16:08:45;10.40;99.90
8463;DHT22;4268;52.506;13.462;2023-12-29T16:11:22;10.40;99.90
8463;DHT22;4268;52.506;13.462;2023-12-29T16:13:48;10.50;99.90
8463;DHT22;4268;52.506;13.462;2023-12-29T16:16:14;10.50;99.90
8463;DHT22;4268;52.506;13.462;2023-12-29T16:18:39;10.50;99.90